createdAt,value
2018-03-30T00:00:36.448Z,996.08
2018-03-30T00:01:16.864Z,996.07
2018-03-30T00:01:57.269Z,996.04
2018-03-30T00:02:37.650Z,996.11
2018-03-30T00:03:18.050Z,996.13
2018-03-30T00:03:58.439Z,996.11
2018-03-30T00:04:40.380Z,996.15
2018-03-30T00:05:20.928Z,996.04
2018-03-30T00:06:01.095Z,996.08
2018-03-30T00:06:41.531Z,996.11
2018-03-30T00:07:21.901Z,996.03
2018-03-30T00:08:02.328Z,996.04
2018-03-30T00:08:44.088Z,996.04
2018-03-30T00:09:24.471Z,996.03
2018-03-30T00:10:04.847Z,996.08
2018-03-30T00:10:45.246Z,996.05
2018-03-30T00:11:27.197Z,996.12
2018-03-30T00:12:07.537Z,996.06
2018-03-30T00:12:47.931Z,996.06
2018-03-30T00:13:28.347Z,996.06
2018-03-30T00:17:16.176Z,995.98
2018-03-30T00:17:56.281Z,996.02
2018-03-30T00:18:36.661Z,996
2018-03-30T00:19:17.089Z,995.99
2018-03-30T00:19:57.500Z,995.97
2018-03-30T00:20:37.851Z,995.96
2018-03-30T00:21:18.328Z,995.92
2018-03-30T00:21:58.659Z,995.91
2018-03-30T00:22:39.030Z,995.84
2018-03-30T00:23:19.437Z,995.88
2018-03-30T00:23:59.791Z,995.87
2018-03-30T00:24:40.206Z,995.89
2018-03-30T00:25:20.770Z,995.88
2018-03-30T00:26:01.168Z,995.88
2018-03-30T00:26:41.554Z,995.84
2018-03-30T00:27:22.002Z,995.86
2018-03-30T00:28:02.377Z,995.83
2018-03-30T00:28:42.734Z,995.81
2018-03-30T00:29:23.166Z,995.81
2018-03-30T00:30:03.543Z,995.84
2018-03-30T00:30:44.027Z,995.86
2018-03-30T00:31:24.479Z,995.8
2018-03-30T00:32:04.890Z,995.85
2018-03-30T00:32:46.964Z,995.76
2018-03-30T00:33:27.785Z,995.86
2018-03-30T00:34:08.198Z,995.81
2018-03-30T00:34:48.564Z,995.78
2018-03-30T00:35:29.947Z,995.79
2018-03-30T00:36:10.756Z,995.81
2018-03-30T00:36:50.898Z,995.73
2018-03-30T00:37:31.305Z,995.81
2018-03-30T00:38:11.834Z,995.8
2018-03-30T00:38:53.835Z,995.75
2018-03-30T00:39:34.812Z,995.74
2018-03-30T00:40:15.578Z,995.79
2018-03-30T00:40:55.980Z,995.77
2018-03-30T00:41:36.572Z,995.76
2018-03-30T00:42:20.425Z,995.78
2018-03-30T00:43:00.537Z,995.77
2018-03-30T00:43:40.980Z,995.74
2018-03-30T00:45:47.028Z,995.75
2018-03-30T00:46:28.391Z,995.78
2018-03-30T00:47:08.811Z,995.76
2018-03-30T00:47:49.240Z,995.74
2018-03-30T00:48:30.072Z,995.68
2018-03-30T00:49:10.568Z,995.7
2018-03-30T00:49:52.819Z,995.67
2018-03-30T00:50:33.188Z,995.69
2018-03-30T00:51:14.028Z,995.73
2018-03-30T00:51:54.550Z,995.67
2018-03-30T00:52:35.183Z,995.71
2018-03-30T00:53:15.840Z,995.7
2018-03-30T00:53:56.311Z,995.65
2018-03-30T00:54:37.407Z,995.71
2018-03-30T00:55:17.963Z,995.68
2018-03-30T00:56:00.437Z,995.64
2018-03-30T00:56:40.953Z,995.63
2018-03-30T00:57:21.333Z,995.65
2018-03-30T00:59:39.022Z,995.58
2018-03-30T01:00:21.719Z,995.57
2018-03-30T01:01:02.108Z,995.57
2018-03-30T01:01:42.472Z,995.6
2018-03-30T01:02:22.844Z,995.59
2018-03-30T01:03:03.265Z,995.55
2018-03-30T01:03:43.728Z,995.6
2018-03-30T01:04:24.133Z,995.56
2018-03-30T01:05:04.513Z,995.53
2018-03-30T01:05:45.260Z,995.53
2018-03-30T01:06:25.715Z,995.56
2018-03-30T01:07:06.137Z,995.58
2018-03-30T01:07:46.495Z,995.57
2018-03-30T01:08:26.915Z,995.56
2018-03-30T01:09:07.357Z,995.57
2018-03-30T01:09:50.396Z,995.52
2018-03-30T01:10:30.749Z,995.57
2018-03-30T01:11:11.113Z,995.53
2018-03-30T01:11:51.539Z,995.52
2018-03-30T01:12:31.885Z,995.49
2018-03-30T01:13:12.254Z,995.46
2018-03-30T01:13:52.860Z,995.46
2018-03-30T01:14:33.371Z,995.48
2018-03-30T01:15:13.700Z,995.42
2018-03-30T01:15:54.096Z,995.45
2018-03-30T01:16:34.612Z,995.43
2018-03-30T01:17:15.000Z,995.36
2018-03-30T01:17:55.390Z,995.38
2018-03-30T01:18:35.837Z,995.36
2018-03-30T01:19:16.264Z,995.39
2018-03-30T01:19:56.619Z,995.36
2018-03-30T01:20:37.070Z,995.38
2018-03-30T01:21:17.442Z,995.37
2018-03-30T01:21:57.847Z,995.38
2018-03-30T01:22:38.224Z,995.36
2018-03-30T01:23:18.595Z,995.36
2018-03-30T01:23:59.047Z,995.36
2018-03-30T01:24:39.414Z,995.34
2018-03-30T01:25:20.090Z,995.37
2018-03-30T01:26:00.987Z,995.35
2018-03-30T01:26:41.407Z,995.34
2018-03-30T01:27:21.811Z,995.35
2018-03-30T01:28:02.145Z,995.31
2018-03-30T01:28:42.570Z,995.32
2018-03-30T01:29:22.930Z,995.35
2018-03-30T01:30:03.338Z,995.33
2018-03-30T01:30:43.752Z,995.34
2018-03-30T01:31:24.194Z,995.29
2018-03-30T01:32:04.593Z,995.34
2018-03-30T01:32:44.973Z,995.33
2018-03-30T01:33:25.398Z,995.32
2018-03-30T01:34:05.782Z,995.31
2018-03-30T01:34:46.192Z,995.31
2018-03-30T01:35:26.607Z,995.32
2018-03-30T01:36:07.028Z,995.3
2018-03-30T01:36:47.520Z,995.31
2018-03-30T01:37:27.931Z,995.29
2018-03-30T01:38:08.323Z,995.27
2018-03-30T01:38:48.766Z,995.26
2018-03-30T01:39:29.218Z,995.25
2018-03-30T01:40:09.555Z,995.27
2018-03-30T01:40:49.991Z,995.27
2018-03-30T01:41:30.389Z,995.3
2018-03-30T01:42:10.757Z,995.3
2018-03-30T01:42:51.184Z,995.27
2018-03-30T01:43:31.557Z,995.32
2018-03-30T01:44:11.959Z,995.3
2018-03-30T01:44:52.401Z,995.29
2018-03-30T01:45:32.734Z,995.29
2018-03-30T01:46:13.143Z,995.29
2018-03-30T01:46:53.521Z,995.28
2018-03-30T01:47:33.926Z,995.34
2018-03-30T01:48:14.299Z,995.27
2018-03-30T01:48:54.655Z,995.29
2018-03-30T01:49:35.051Z,995.28
2018-03-30T01:50:15.466Z,995.31
2018-03-30T01:50:55.835Z,995.3
2018-03-30T01:51:36.200Z,995.31
2018-03-30T01:52:16.617Z,995.27
2018-03-30T01:52:57.025Z,995.26
2018-03-30T01:53:37.414Z,995.27
2018-03-30T01:54:17.845Z,995.29
2018-03-30T01:54:58.280Z,995.28
2018-03-30T01:55:38.645Z,995.26
2018-03-30T01:56:19.056Z,995.24
2018-03-30T01:56:59.388Z,995.22
2018-03-30T01:57:39.805Z,995.24
2018-03-30T01:58:20.227Z,995.21
2018-03-30T01:59:00.659Z,995.2
2018-03-30T01:59:40.981Z,995.17
2018-03-30T02:00:21.385Z,995.18
2018-03-30T02:01:01.798Z,995.18
2018-03-30T02:01:42.177Z,995.24
2018-03-30T02:02:22.557Z,995.19
2018-03-30T02:03:03.015Z,995.17
2018-03-30T02:03:43.402Z,995.14
2018-03-30T02:04:23.759Z,995.18
2018-03-30T02:05:04.146Z,995.13
2018-03-30T02:05:44.536Z,995.14
2018-03-30T02:06:24.937Z,995.11
2018-03-30T02:07:05.331Z,995.14
2018-03-30T02:07:45.703Z,995.1
2018-03-30T02:08:26.133Z,995.08
2018-03-30T02:09:06.521Z,995.09
2018-03-30T02:09:46.920Z,995.09
2018-03-30T02:10:27.260Z,995.11
2018-03-30T02:11:07.660Z,995.1
2018-03-30T02:11:48.075Z,995.1
2018-03-30T02:12:28.447Z,995.13
2018-03-30T02:13:08.867Z,995.11
2018-03-30T02:13:49.312Z,995.11
2018-03-30T02:14:29.672Z,995.12
2018-03-30T02:15:10.099Z,995.13
2018-03-30T02:15:50.474Z,995.1
2018-03-30T02:16:30.848Z,995.07
2018-03-30T02:17:11.241Z,995.07
2018-03-30T02:17:51.643Z,995.05
2018-03-30T02:18:32.012Z,995.08
2018-03-30T02:19:12.421Z,995.05
2018-03-30T02:19:52.810Z,995.04
2018-03-30T02:20:33.177Z,995
2018-03-30T02:21:13.566Z,995
2018-03-30T02:21:53.973Z,995.01
2018-03-30T02:22:34.347Z,994.98
2018-03-30T02:23:14.752Z,995.02
2018-03-30T02:23:55.142Z,994.97
2018-03-30T02:24:35.622Z,994.95
2018-03-30T02:25:15.912Z,994.94
2018-03-30T02:25:56.308Z,994.93
2018-03-30T02:26:36.680Z,994.93
2018-03-30T02:27:17.059Z,994.95
2018-03-30T02:27:57.512Z,994.9
2018-03-30T02:28:37.903Z,994.93
2018-03-30T02:29:18.276Z,994.91
2018-03-30T02:29:58.700Z,994.93
2018-03-30T02:30:39.086Z,994.9
2018-03-30T02:31:19.502Z,994.92
2018-03-30T02:31:59.848Z,994.89
2018-03-30T02:32:40.258Z,994.9
2018-03-30T02:33:21.110Z,994.89
2018-03-30T02:34:01.482Z,994.87
2018-03-30T02:34:41.921Z,994.89
2018-03-30T02:35:22.305Z,994.91
2018-03-30T02:36:02.638Z,994.93
2018-03-30T02:36:43.061Z,994.89
2018-03-30T02:37:23.486Z,994.92
2018-03-30T02:38:03.884Z,994.9
2018-03-30T02:38:44.265Z,994.93
2018-03-30T02:39:24.630Z,994.93
2018-03-30T02:40:05.015Z,994.9
2018-03-30T02:40:45.409Z,994.9
2018-03-30T02:41:25.803Z,994.9
2018-03-30T02:42:06.197Z,994.95
2018-03-30T02:42:46.600Z,994.9
2018-03-30T02:43:27.009Z,994.91
2018-03-30T02:44:07.417Z,994.92
2018-03-30T02:44:47.777Z,994.96
2018-03-30T02:45:28.208Z,994.94
2018-03-30T02:46:08.592Z,994.92
2018-03-30T02:46:49.001Z,994.9
2018-03-30T02:47:29.382Z,994.87
2018-03-30T02:48:09.766Z,994.86
2018-03-30T02:48:50.190Z,994.84
2018-03-30T02:49:30.633Z,994.85
2018-03-30T02:50:10.960Z,994.84
2018-03-30T02:50:51.362Z,994.81
2018-03-30T02:51:31.802Z,994.85
2018-03-30T02:52:12.174Z,994.85
2018-03-30T02:52:52.607Z,994.83
2018-03-30T02:53:33.039Z,994.87
2018-03-30T02:54:13.396Z,994.84
2018-03-30T02:54:53.835Z,994.85
2018-03-30T02:55:34.149Z,994.83
2018-03-30T02:56:14.574Z,994.84
2018-03-30T02:56:54.958Z,994.83
2018-03-30T02:57:35.723Z,994.82
2018-03-30T02:58:16.064Z,994.81
2018-03-30T02:58:56.471Z,994.84
2018-03-30T02:59:36.875Z,994.84
2018-03-30T03:00:17.236Z,994.85
2018-03-30T03:00:57.682Z,994.84
2018-03-30T03:01:38.523Z,994.86
2018-03-30T03:02:18.941Z,994.84
2018-03-30T03:02:59.349Z,994.86
2018-03-30T03:03:39.923Z,994.88
2018-03-30T03:04:20.310Z,994.88
2018-03-30T03:05:00.659Z,994.84
2018-03-30T03:05:41.122Z,994.84
2018-03-30T03:06:21.482Z,994.88
2018-03-30T03:07:01.867Z,994.91
2018-03-30T03:07:42.353Z,994.91
2018-03-30T03:08:22.730Z,994.92
2018-03-30T03:09:03.220Z,994.9
2018-03-30T03:09:43.632Z,994.88
2018-03-30T03:10:24.005Z,994.9
2018-03-30T03:11:04.426Z,994.87
2018-03-30T03:11:44.846Z,994.89
2018-03-30T03:12:25.239Z,994.84
2018-03-30T03:13:08.509Z,994.85
2018-03-30T03:13:48.917Z,994.85
2018-03-30T03:14:29.388Z,994.86
2018-03-30T03:15:09.744Z,994.81
2018-03-30T03:15:50.116Z,994.81
2018-03-30T03:16:30.474Z,994.81
2018-03-30T03:17:10.852Z,994.78
2018-03-30T03:17:51.252Z,994.85
2018-03-30T03:18:31.625Z,994.78
2018-03-30T03:19:12.038Z,994.83
2018-03-30T03:19:52.409Z,994.82
2018-03-30T03:20:32.787Z,994.79
2018-03-30T03:21:13.173Z,994.79
2018-03-30T03:21:53.580Z,994.77
2018-03-30T03:22:33.936Z,994.75
2018-03-30T03:23:14.353Z,994.79
2018-03-30T03:23:54.698Z,994.75
2018-03-30T03:24:35.161Z,994.71
2018-03-30T03:25:15.555Z,994.74
2018-03-30T03:25:55.906Z,994.71
2018-03-30T03:28:11.470Z,994.66
2018-03-30T03:28:52.537Z,994.65
2018-03-30T03:29:32.960Z,994.64
2018-03-30T03:30:13.362Z,994.68
2018-03-30T03:30:53.748Z,994.67
2018-03-30T03:31:34.143Z,994.66
2018-03-30T03:32:14.507Z,994.68
2018-03-30T03:32:54.891Z,994.67
2018-03-30T03:33:35.270Z,994.68
2018-03-30T03:34:15.693Z,994.68
2018-03-30T03:34:56.060Z,994.67
2018-03-30T03:35:36.443Z,994.7
2018-03-30T03:36:16.829Z,994.69
2018-03-30T03:36:57.212Z,994.67
2018-03-30T03:37:37.627Z,994.67
2018-03-30T03:38:18.009Z,994.67
2018-03-30T03:38:58.364Z,994.67
2018-03-30T03:39:38.795Z,994.7
2018-03-30T03:40:19.119Z,994.66
2018-03-30T03:40:59.498Z,994.68
2018-03-30T03:41:39.909Z,994.71
2018-03-30T03:42:20.307Z,994.69
2018-03-30T03:43:00.683Z,994.66
2018-03-30T03:43:41.091Z,994.68
2018-03-30T03:44:21.468Z,994.66
2018-03-30T03:45:01.873Z,994.66
2018-03-30T03:45:42.254Z,994.61
2018-03-30T03:46:22.735Z,994.57
2018-03-30T03:47:03.080Z,994.6
2018-03-30T03:47:43.476Z,994.55
2018-03-30T03:48:23.911Z,994.54
2018-03-30T03:49:04.300Z,994.55
2018-03-30T03:49:44.676Z,994.58
2018-03-30T03:50:25.075Z,994.53
2018-03-30T03:51:05.505Z,994.55
2018-03-30T03:51:45.887Z,994.54
2018-03-30T03:52:26.263Z,994.5
2018-03-30T03:53:06.668Z,994.52
2018-03-30T03:53:47.021Z,994.47
2018-03-30T03:54:27.428Z,994.5
2018-03-30T03:55:07.805Z,994.5
2018-03-30T03:55:48.192Z,994.49
2018-03-30T03:56:28.621Z,994.5
2018-03-30T03:57:08.963Z,994.48
2018-03-30T03:57:49.400Z,994.51
2018-03-30T03:58:29.763Z,994.45
2018-03-30T03:59:10.194Z,994.48
2018-03-30T03:59:50.581Z,994.48
2018-03-30T04:00:30.977Z,994.5
2018-03-30T04:01:11.349Z,994.5
2018-03-30T04:01:51.753Z,994.42
2018-03-30T04:02:32.168Z,994.38
2018-03-30T04:03:12.563Z,994.32
2018-03-30T04:03:52.933Z,994.37
2018-03-30T04:45:21.040Z,994.49
2018-03-30T04:46:01.232Z,994.52
2018-03-30T04:46:41.620Z,994.52
2018-03-30T04:47:22.018Z,994.54
2018-03-30T04:48:02.402Z,994.5
2018-03-30T04:48:42.795Z,994.54
2018-03-30T04:49:23.157Z,994.47
2018-03-30T04:50:03.584Z,994.45
2018-03-30T04:50:43.951Z,994.44
2018-03-30T04:51:24.315Z,994.43
2018-03-30T04:52:04.703Z,994.43
2018-03-30T04:52:45.130Z,994.43
2018-03-30T04:53:25.530Z,994.43
2018-03-30T04:54:05.932Z,994.43
2018-03-30T04:54:46.301Z,994.43
2018-03-30T04:55:26.649Z,994.43
2018-03-30T04:56:07.189Z,994.45
2018-03-30T04:56:47.559Z,994.44
2018-03-30T04:57:27.993Z,994.43
2018-03-30T04:58:08.344Z,994.44
2018-03-30T04:58:48.737Z,994.44
2018-03-30T04:59:29.137Z,994.47
2018-03-30T05:00:09.563Z,994.42
2018-03-30T05:00:49.982Z,994.4
2018-03-30T05:01:30.374Z,994.38
2018-03-30T05:02:10.738Z,994.41
2018-03-30T05:02:51.149Z,994.4
2018-03-30T05:03:31.531Z,994.37
2018-03-30T05:04:11.878Z,994.37
2018-03-30T05:04:52.317Z,994.38
2018-03-30T05:05:32.701Z,994.34
2018-03-30T05:06:13.122Z,994.37
2018-03-30T05:06:53.492Z,994.36
2018-03-30T05:07:33.912Z,994.36
2018-03-30T05:08:14.351Z,994.34
2018-03-30T05:08:54.713Z,994.3
2018-03-30T05:09:35.078Z,994.33
2018-03-30T05:10:15.435Z,994.33
2018-03-30T05:10:55.865Z,994.29
2018-03-30T05:11:36.265Z,994.36
2018-03-30T05:12:16.629Z,994.33
2018-03-30T05:12:57.022Z,994.31
2018-03-30T05:13:37.432Z,994.3
2018-03-30T05:14:17.846Z,994.29
2018-03-30T05:14:58.227Z,994.28
2018-03-30T05:15:38.639Z,994.27
2018-03-30T05:16:19.027Z,994.29
2018-03-30T05:16:59.425Z,994.28
2018-03-30T05:17:39.824Z,994.29
2018-03-30T05:18:20.176Z,994.24
2018-03-30T05:19:00.618Z,994.24
2018-03-30T05:19:41.003Z,994.27
2018-03-30T05:20:21.423Z,994.2
2018-03-30T05:21:01.836Z,994.22
2018-03-30T05:21:42.242Z,994.23
2018-03-30T05:22:22.593Z,994.19
2018-03-30T05:23:02.986Z,994.2
2018-03-30T05:23:43.371Z,994.22
2018-03-30T05:24:23.732Z,994.25
2018-03-30T05:25:04.169Z,994.23
2018-03-30T05:25:44.510Z,994.25
2018-03-30T05:26:24.936Z,994.24
2018-03-30T05:27:05.373Z,994.23
2018-03-30T05:27:45.726Z,994.24
2018-03-30T05:28:26.124Z,994.25
2018-03-30T05:29:06.542Z,994.27
2018-03-30T05:29:46.909Z,994.26
2018-03-30T05:30:27.329Z,994.25
2018-03-30T05:31:07.702Z,994.28
2018-03-30T05:31:48.076Z,994.24
2018-03-30T05:32:28.493Z,994.28
2018-03-30T05:33:08.943Z,994.26
2018-03-30T05:33:49.314Z,994.23
2018-03-30T05:34:29.785Z,994.28
2018-03-30T05:35:10.109Z,994.25
2018-03-30T05:35:50.513Z,994.27
2018-03-30T05:36:30.904Z,994.25
2018-03-30T05:37:11.299Z,994.22
2018-03-30T05:37:51.725Z,994.25
2018-03-30T05:38:32.121Z,994.25
2018-03-30T05:39:12.504Z,994.2
2018-03-30T05:39:52.911Z,994.24
2018-03-30T05:40:33.294Z,994.25
2018-03-30T05:41:13.688Z,994.24
2018-03-30T05:41:54.072Z,994.23
2018-03-30T05:42:34.493Z,994.24
2018-03-30T05:43:14.890Z,994.27
2018-03-30T05:43:55.313Z,994.23
2018-03-30T05:44:35.685Z,994.24
2018-03-30T05:45:16.070Z,994.18
2018-03-30T05:45:56.502Z,994.18
2018-03-30T05:46:36.926Z,994.17
2018-03-30T05:47:17.286Z,994.18
2018-03-30T05:47:57.717Z,994.17
2018-03-30T05:48:38.109Z,994.16
2018-03-30T05:49:18.506Z,994.11
2018-03-30T05:49:58.868Z,994.13
2018-03-30T05:50:39.243Z,994.1
2018-03-30T05:51:19.630Z,994.13
2018-03-30T05:52:00.032Z,994.11
2018-03-30T05:52:40.398Z,994.1
2018-03-30T05:53:20.837Z,994.1
2018-03-30T05:54:01.244Z,994.12
2018-03-30T05:54:41.690Z,994.12
2018-03-30T05:55:21.998Z,994.1
2018-03-30T05:56:02.427Z,994.08
2018-03-30T05:56:42.860Z,994.09
2018-03-30T05:57:23.258Z,994.09
2018-03-30T05:58:03.630Z,994.07
2018-03-30T05:58:44.037Z,994.1
2018-03-30T05:59:24.440Z,994.14
2018-03-30T06:00:04.816Z,994.11
2018-03-30T06:00:45.250Z,994.09
2018-03-30T06:01:25.612Z,994.13
2018-03-30T06:02:06.031Z,994.07
2018-03-30T06:02:46.428Z,994.1
2018-03-30T06:03:26.829Z,994.09
2018-03-30T06:04:07.208Z,994.1
2018-03-30T06:04:47.561Z,994.15
2018-03-30T06:05:28.038Z,994.13
2018-03-30T06:06:08.425Z,994.14
2018-03-30T06:06:48.788Z,994.15
2018-03-30T06:07:29.249Z,994.19
2018-03-30T06:08:09.710Z,994.15
2018-03-30T06:08:50.024Z,994.16
2018-03-30T06:09:30.403Z,994.15
2018-03-30T06:10:10.833Z,994.16
2018-03-30T06:10:51.211Z,994.15
2018-03-30T06:11:31.659Z,994.15
2018-03-30T06:12:12.003Z,994.14
2018-03-30T06:12:52.428Z,994.14
2018-03-30T06:13:32.792Z,994.16
2018-03-30T06:14:13.210Z,994.15
2018-03-30T06:16:31.636Z,994.2
2018-03-30T06:17:13.660Z,994.17
2018-03-30T06:17:54.024Z,994.15
2018-03-30T06:18:34.436Z,994.16
2018-03-30T06:19:14.839Z,994.19
2018-03-30T06:19:55.197Z,994.13
2018-03-30T06:20:35.563Z,994.13
2018-03-30T06:21:15.974Z,994.13
2018-03-30T06:21:56.386Z,994.13
2018-03-30T06:22:37.028Z,994.12
2018-03-30T06:23:17.268Z,994.14
2018-03-30T06:23:57.640Z,994.12
2018-03-30T06:24:38.033Z,994.16
2018-03-30T06:25:18.412Z,994.16
2018-03-30T06:25:58.792Z,994.15
2018-03-30T06:26:39.182Z,994.12
2018-03-30T06:28:32.615Z,994.16
2018-03-30T06:29:13.181Z,994.2
2018-03-30T06:29:53.583Z,994.22
2018-03-30T06:30:33.981Z,994.23
2018-03-30T06:31:14.351Z,994.24
2018-03-30T06:31:54.764Z,994.25
2018-03-30T06:32:35.218Z,994.26
2018-03-30T06:33:15.610Z,994.24
2018-03-30T06:33:56.016Z,994.25
2018-03-30T06:34:36.380Z,994.23
2018-03-30T06:35:16.768Z,994.24
2018-03-30T06:35:57.206Z,994.19
2018-03-30T06:36:37.608Z,994.18
2018-03-30T06:37:17.998Z,994.15
2018-03-30T06:37:58.406Z,994.14
2018-03-30T06:38:38.811Z,994.12
2018-03-30T06:39:19.206Z,994.12
2018-03-30T06:39:59.583Z,994.1
2018-03-30T06:40:39.961Z,994.11
2018-03-30T06:41:20.384Z,994.07
2018-03-30T06:42:00.801Z,994.05
2018-03-30T06:42:41.188Z,994.01
2018-03-30T06:43:21.627Z,994.04
2018-03-30T06:44:01.980Z,993.97
2018-03-30T06:44:42.390Z,993.97
2018-03-30T06:45:22.760Z,993.96
2018-03-30T06:46:03.199Z,993.95
2018-03-30T06:46:43.588Z,993.93
2018-03-30T06:47:23.974Z,993.91
2018-03-30T06:48:04.410Z,993.89
2018-03-30T06:48:44.783Z,993.91
2018-03-30T06:49:25.227Z,993.89
2018-03-30T06:50:05.569Z,993.9
2018-03-30T06:50:45.960Z,993.89
2018-03-30T06:51:26.388Z,993.91
2018-03-30T06:52:06.795Z,993.94
2018-03-30T06:52:47.118Z,993.89
2018-03-30T06:53:27.544Z,993.88
2018-03-30T06:54:07.986Z,993.86
2018-03-30T06:54:48.402Z,993.9
2018-03-30T06:55:28.771Z,993.96
2018-03-30T06:56:09.147Z,993.9
2018-03-30T06:56:49.576Z,993.94
2018-03-30T06:57:29.977Z,993.94
2018-03-30T06:58:10.350Z,993.95
2018-03-30T06:58:50.731Z,993.92
2018-03-30T06:59:31.143Z,993.93
2018-03-30T07:00:11.479Z,993.91
2018-03-30T07:00:51.915Z,993.96
2018-03-30T07:01:32.286Z,993.99
2018-03-30T07:02:12.683Z,993.98
2018-03-30T07:02:53.097Z,993.98
2018-03-30T07:03:33.500Z,993.96
2018-03-30T07:04:13.854Z,994
2018-03-30T07:04:54.261Z,993.95
2018-03-30T07:05:34.668Z,993.94
2018-03-30T07:06:15.053Z,993.92
2018-03-30T07:06:55.478Z,993.94
2018-03-30T07:07:35.846Z,993.95
2018-03-30T07:08:16.289Z,993.96
2018-03-30T07:08:56.642Z,993.95
2018-03-30T07:09:37.078Z,993.93
2018-03-30T07:10:17.495Z,993.94
2018-03-30T07:10:57.825Z,993.92
2018-03-30T07:11:38.216Z,993.95
2018-03-30T07:12:18.649Z,993.93
2018-03-30T07:12:59.028Z,993.93
2018-03-30T07:13:39.425Z,993.95
2018-03-30T07:14:19.839Z,993.94
2018-03-30T07:15:00.234Z,993.93
2018-03-30T07:15:40.617Z,993.94
2018-03-30T07:16:21.051Z,993.92
2018-03-30T07:17:01.434Z,993.89
2018-03-30T07:17:41.809Z,993.91
2018-03-30T07:18:22.197Z,993.91
2018-03-30T07:19:02.608Z,993.9
2018-03-30T07:19:43.021Z,993.88
2018-03-30T07:20:23.397Z,993.86
2018-03-30T07:21:03.768Z,993.86
2018-03-30T07:21:44.198Z,993.83
2018-03-30T07:22:24.559Z,993.83
2018-03-30T07:23:04.957Z,993.84
2018-03-30T07:23:45.355Z,993.87
2018-03-30T07:24:25.726Z,993.87
2018-03-30T07:25:06.121Z,993.85
2018-03-30T07:25:46.522Z,993.89
2018-03-30T07:26:26.900Z,993.84
2018-03-30T07:27:07.310Z,993.89
2018-03-30T07:27:47.700Z,993.84
2018-03-30T07:28:28.122Z,993.84
2018-03-30T07:29:08.546Z,993.86
2018-03-30T07:29:48.959Z,993.84
2018-03-30T07:30:29.393Z,993.84
2018-03-30T07:31:09.751Z,993.79
2018-03-30T07:31:50.121Z,993.78
2018-03-30T07:32:30.570Z,993.81
2018-03-30T07:33:10.965Z,993.79
2018-03-30T07:33:51.332Z,993.77
2018-03-30T07:34:31.779Z,993.71
2018-03-30T07:35:12.142Z,993.75
2018-03-30T07:35:52.584Z,993.72
2018-03-30T07:36:32.959Z,993.7
2018-03-30T07:37:13.401Z,993.68
2018-03-30T07:37:53.785Z,993.7
2018-03-30T07:38:34.185Z,993.65
2018-03-30T07:39:14.572Z,993.66
2018-03-30T07:39:54.968Z,993.66
2018-03-30T07:40:35.359Z,993.69
2018-03-30T07:41:15.756Z,993.67
2018-03-30T07:41:56.118Z,993.7
2018-03-30T07:42:36.532Z,993.71
2018-03-30T07:43:16.973Z,993.62
2018-03-30T07:43:57.419Z,993.67
2018-03-30T07:44:37.784Z,993.64
2018-03-30T07:45:18.212Z,993.63
2018-03-30T07:45:58.562Z,993.6
2018-03-30T07:46:38.964Z,993.59
2018-03-30T07:47:19.381Z,993.59
2018-03-30T07:47:59.796Z,993.57
2018-03-30T07:48:40.158Z,993.57
2018-03-30T07:49:20.537Z,993.59
2018-03-30T07:51:40.226Z,993.55
2018-03-30T07:52:21.854Z,993.51
2018-03-30T07:53:02.238Z,993.53
2018-03-30T07:53:42.684Z,993.5
2018-03-30T07:54:23.072Z,993.48
2018-03-30T07:55:03.492Z,993.51
2018-03-30T07:55:43.855Z,993.48
2018-03-30T07:56:24.234Z,993.45
2018-03-30T07:57:04.912Z,993.5
2018-03-30T07:57:45.185Z,993.45
2018-03-30T07:58:25.571Z,993.38
2018-03-30T07:59:06.021Z,993.39
2018-03-30T07:59:46.774Z,993.42
2018-03-30T08:00:27.146Z,993.38
2018-03-30T08:01:07.624Z,993.41
2018-03-30T08:01:47.991Z,993.39
2018-03-30T08:02:28.353Z,993.41
2018-03-30T08:03:08.760Z,993.36
2018-03-30T08:03:49.271Z,993.43
2018-03-30T08:04:29.635Z,993.37
2018-03-30T08:05:10.064Z,993.37
2018-03-30T08:05:50.513Z,993.4
2018-03-30T08:06:30.934Z,993.39
2018-03-30T08:07:11.280Z,993.38
2018-03-30T08:07:51.715Z,993.36
2018-03-30T08:08:32.152Z,993.35
2018-03-30T08:09:12.556Z,993.34
2018-03-30T08:09:52.925Z,993.3
2018-03-30T08:10:33.309Z,993.35
2018-03-30T08:11:13.752Z,993.31
2018-03-30T08:11:54.198Z,993.36
2018-03-30T08:12:34.617Z,993.33
2018-03-30T08:13:15.011Z,993.32
2018-03-30T08:13:55.449Z,993.33
2018-03-30T08:14:36.089Z,993.3
2018-03-30T08:15:16.477Z,993.28
2018-03-30T08:15:58.220Z,993.31
2018-03-30T08:16:38.361Z,993.27
2018-03-30T08:17:18.767Z,993.24
2018-03-30T08:17:59.258Z,993.25
2018-03-30T08:18:39.586Z,993.24
2018-03-30T08:20:39.234Z,993.27
2018-03-30T08:21:20.570Z,993.2
2018-03-30T08:22:01.163Z,993.22
2018-03-30T08:22:42.133Z,993.23
2018-03-30T08:23:22.662Z,993.25
2018-03-30T08:24:03.070Z,993.18
2018-03-30T08:24:43.455Z,993.15
2018-03-30T08:25:24.441Z,993.13
2018-03-30T08:26:04.796Z,993.17
2018-03-30T08:26:45.184Z,993.16
2018-03-30T08:27:25.648Z,993.16
2018-03-30T08:28:06.581Z,993.11
2018-03-30T08:28:47.018Z,993.17
2018-03-30T08:29:27.459Z,993.17
2018-03-30T08:30:07.820Z,993.17
2018-03-30T08:30:48.260Z,993.13
2018-03-30T08:31:28.734Z,993.13
2018-03-30T08:32:09.120Z,993.09
2018-03-30T08:32:49.527Z,993.07
2018-03-30T08:33:30.170Z,993.07
2018-03-30T08:34:10.669Z,993.03
2018-03-30T08:34:51.295Z,993.01
2018-03-30T08:35:31.680Z,993.01
2018-03-30T08:36:12.418Z,992.98
2018-03-30T08:36:54.075Z,992.99
2018-03-30T08:37:34.104Z,992.94
2018-03-30T08:38:14.586Z,992.94
2018-03-30T08:38:55.001Z,992.89
2018-03-30T08:39:35.430Z,992.97
2018-03-30T08:40:17.109Z,992.95
2018-03-30T08:40:57.660Z,992.96
2018-03-30T08:41:38.332Z,992.88
2018-03-30T08:42:18.563Z,992.89
2018-03-30T08:42:59.003Z,992.86
2018-03-30T08:43:39.471Z,992.88
2018-03-30T08:44:19.957Z,992.96
2018-03-30T08:45:00.324Z,992.92
2018-03-30T08:45:40.753Z,992.92
2018-03-30T08:46:21.092Z,992.97
2018-03-30T08:47:01.852Z,992.93
2018-03-30T08:47:42.372Z,992.89
2018-03-30T08:48:22.801Z,992.87
2018-03-30T08:49:03.528Z,992.88
2018-03-30T08:49:43.922Z,992.94
2018-03-30T08:50:24.307Z,992.9
2018-03-30T08:51:04.932Z,992.89
2018-03-30T08:51:45.362Z,992.84
2018-03-30T08:52:25.818Z,992.85
2018-03-30T08:53:06.208Z,992.83
2018-03-30T08:53:47.034Z,992.79
2018-03-30T08:54:27.870Z,992.82
2018-03-30T08:55:08.293Z,992.72
2018-03-30T08:55:48.804Z,992.79
2018-03-30T08:56:31.704Z,992.76
2018-03-30T08:57:12.844Z,992.76
2018-03-30T08:57:53.301Z,992.75
2018-03-30T08:58:33.667Z,992.73
2018-03-30T08:59:14.094Z,992.69
2018-03-30T08:59:54.979Z,992.65
2018-03-30T09:00:35.449Z,992.76
2018-03-30T09:01:15.923Z,992.75
2018-03-30T09:01:56.469Z,992.7
2018-03-30T09:02:36.905Z,992.68
2018-03-30T09:03:20.060Z,992.66
2018-03-30T09:04:00.834Z,992.72
2018-03-30T09:04:42.031Z,992.69
2018-03-30T09:05:22.454Z,992.78
2018-03-30T09:06:02.914Z,992.72
2018-03-30T09:06:43.548Z,992.71
2018-03-30T09:07:24.344Z,992.67
2018-03-30T09:08:04.777Z,992.65
2018-03-30T09:08:45.172Z,992.64
2018-03-30T09:09:25.694Z,992.61
2018-03-30T09:10:06.752Z,992.68
2018-03-30T09:10:46.994Z,992.72
2018-03-30T09:11:27.690Z,992.72
2018-03-30T09:12:08.076Z,992.72
2018-03-30T09:12:48.572Z,992.72
2018-03-30T09:13:28.996Z,992.74
2018-03-30T09:14:09.489Z,992.63
2018-03-30T09:14:49.855Z,992.61
2018-03-30T09:15:30.748Z,992.61
2018-03-30T09:16:11.495Z,992.59
2018-03-30T09:16:52.108Z,992.52
2018-03-30T09:17:33.057Z,992.57
2018-03-30T09:18:13.876Z,992.53
2018-03-30T09:18:54.311Z,992.56
2018-03-30T09:19:34.832Z,992.52
2018-03-30T09:20:15.500Z,992.52
2018-03-30T09:20:55.920Z,992.56
2018-03-30T09:21:36.312Z,992.58